Time;durP1;ratioP1;P1;durP2;ratioP2;P2;SDS_P1;SDS_P2;PMS_P1;PMS_P2;Temp;Humidity;BMP_temperature;BMP_pressure;BME280_temperature;BME280_humidity;BME280_pressure;Samples;Min_cycle;Max_cycle;Signal;HPM_P1;HPM_P2
2023/12/29 00:05:06;;;;;;;82.00;43.53;;;;;;;-142.57;100.00;56640.69;4872014;29;20143;-79
2023/12/29 00:07:31;;;;;;;78.07;42.53;;;;;;;-142.57;100.00;56632.59;4839038;29;20037;-79
2023/12/29 00:09:57;;;;;;;82.75;42.72;;;;;;;-142.57;100.00;56638.66;4835120;29;20036;-77
2023/12/29 00:12:22;;;;;;;75.45;42.80;;;;;;;-142.57;100.00;56654.84;4840119;29;20033;-80
2023/12/29 00:14:48;;;;;;;79.05;42.97;;;;;;;-142.57;100.00;56638.66;4891049;29;20079;-79
2023/12/29 00:17:14;;;;;;;79.15;42.33;;;;;;;-142.57;100.00;56650.78;4906963;29;20029;-79
2023/12/29 00:19:39;;;;;;;80.18;41.28;;;;;;;-142.57;100.00;56646.75;4898003;29;20592;-78
2023/12/29 00:22:05;;;;;;;74.05;41.20;;;;;;;-142.57;100.00;56626.53;4905695;29;20043;-79
2023/12/29 00:24:35;;;;;;;76.65;42.75;;;;;;;-142.57;100.00;56636.66;4904659;29;20040;-80
2023/12/29 00:27:01;;;;;;;76.32;41.42;;;;;;;-142.57;100.00;56616.44;4905600;29;20052;-79
2023/12/29 00:29:32;;;;;;;78.85;43.75;;;;;;;-142.57;100.00;56628.56;4907795;29;20369;-77
2023/12/29 00:31:57;;;;;;;78.32;42.58;;;;;;;-142.57;100.00;56626.53;4849401;29;20575;-77
2023/12/29 00:34:23;;;;;;;80.05;44.35;;;;;;;-142.57;100.00;56628.56;4881760;29;20120;-79
2023/12/29 00:36:51;;;;;;;85.30;44.40;;;;;;;-142.57;100.00;56634.63;4894212;29;20084;-78
2023/12/29 00:39:17;;;;;;;86.82;45.22;;;;;;;-142.57;100.00;56654.84;4904072;29;20048;-77
2023/12/29 00:41:42;;;;;;;87.30;46.38;;;;;;;-142.57;100.00;56673.03;4894366;29;20035;-77
2023/12/29 00:44:08;;;;;;;86.47;46.85;;;;;;;-142.57;100.00;56666.97;4908926;29;20123;-78
2023/12/29 00:46:34;;;;;;;96.63;48.20;;;;;;;-142.57;100.00;56703.34;4892132;29;20123;-78
2023/12/29 00:49:04;;;;;;;87.30;47.25;;;;;;;-142.57;100.00;56733.66;4896040;29;20029;-78
2023/12/29 00:51:29;;;;;;;93.60;47.97;;;;;;;-142.57;100.00;56703.34;4891185;29;20140;-79
2023/12/29 00:53:55;;;;;;;91.80;48.72;;;;;;;-142.57;100.00;56697.28;4881385;29;20127;-78
2023/12/29 00:56:20;;;;;;;102.32;51.85;;;;;;;-142.57;100.00;56709.41;4882707;29;20040;-78
2023/12/29 00:58:46;;;;;;;102.82;50.97;;;;;;;-142.57;100.00;56731.63;4894019;29;20055;-78
2023/12/29 01:01:15;;;;;;;105.05;53.45;;;;;;;-142.57;100.00;56737.69;4890637;29;20379;-79
2023/12/29 01:03:41;;;;;;;105.28;51.30;;;;;;;-142.57;100.00;56759.94;4902077;29;20054;-79
2023/12/29 01:06:06;;;;;;;97.35;50.83;;;;;;;-142.57;100.00;56747.81;4865106;29;20028;-78
2023/12/29 01:08:33;;;;;;;103.82;51.45;;;;;;;-142.57;100.00;56727.59;4904727;29;20047;-77
2023/12/29 01:10:58;;;;;;;104.30;50.83;;;;;;;-142.57;100.00;56705.34;4902484;29;20456;-79
2023/12/29 01:13:27;;;;;;;105.53;52.03;;;;;;;-142.57;100.00;56747.81;4903331;29;20067;-79
2023/12/29 01:15:53;;;;;;;99.57;52.42;;;;;;;-142.57;100.00;56749.81;4885471;29;20203;-77
2023/12/29 01:18:18;;;;;;;103.18;52.47;;;;;;;-142.57;100.00;56739.72;4889605;29;20496;-78
2023/12/29 01:20:44;;;;;;;108.53;54.30;;;;;;;-142.57;100.00;56745.78;4906040;29;20047;-78
2023/12/29 01:23:09;;;;;;;102.35;52.78;;;;;;;-142.57;100.00;56743.75;4895558;29;20036;-78
2023/12/29 01:25:35;;;;;;;105.82;52.88;;;;;;;-142.57;100.00;56745.78;4894763;29;20040;-76
2023/12/29 01:28:01;;;;;;;103.75;52.25;;;;;;;-142.57;100.00;56751.84;4900088;29;20032;-78
2023/12/29 01:30:26;;;;;;;111.70;55.63;;;;;;;-142.57;100.00;56751.84;4911945;29;20084;-78
2023/12/29 01:32:52;;;;;;;108.00;55.08;;;;;;;-142.57;100.00;56739.72;4906364;29;20068;-79
2023/12/29 01:35:17;;;;;;;107.97;53.28;;;;;;;-142.57;100.00;56743.75;4902179;29;20053;-77
2023/12/29 01:37:45;;;;;;;111.57;53.63;;;;;;;-142.57;100.00;56796.31;4884694;29;20111;-77
2023/12/29 01:40:11;;;;;;;103.38;53.17;;;;;;;-142.57;100.00;56820.56;4895314;29;20028;-77
2023/12/29 01:42:36;;;;;;;102.47;54.22;;;;;;;-142.57;100.00;56780.13;4890760;29;20403;-78
2023/12/29 01:45:02;;;;;;;97.35;51.13;;;;;;;-142.57;100.00;56792.25;4889940;29;20047;-76
2023/12/29 01:47:28;;;;;;;106.60;54.10;;;;;;;-142.57;100.00;56842.78;4880772;29;20041;-79
2023/12/29 01:49:53;;;;;;;91.85;49.22;;;;;;;-142.57;100.00;56840.78;4855179;29;20036;-78
2023/12/29 01:52:19;;;;;;;90.70;49.10;;;;;;;-142.57;100.00;56856.94;4857165;29;20024;-77
2023/12/29 01:54:47;;;;;;;91.68;48.08;;;;;;;-142.57;100.00;56838.75;4897847;29;20542;-77
2023/12/29 01:57:14;;;;;;;86.15;48.00;;;;;;;-142.57;100.00;56842.78;4895557;29;20059;-78
2023/12/29 01:59:41;;;;;;;87.78;47.53;;;;;;;-142.57;100.00;56796.31;4896084;29;20036;-78
2023/12/29 02:02:07;;;;;;;90.38;47.80;;;;;;;-142.57;100.00;56796.31;4881674;29;20066;-77
2023/12/29 02:04:33;;;;;;;87.07;45.85;;;;;;;-142.57;100.00;56804.38;4903824;29;20056;-78
2023/12/29 02:06:58;;;;;;;76.85;43.97;;;;;;;-142.57;100.00;56836.72;4909461;29;20088;-78
2023/12/29 02:09:25;;;;;;;84.63;46.78;;;;;;;-142.57;100.00;56796.31;4916647;29;20042;-78
2023/12/29 02:11:50;;;;;;;84.88;46.60;;;;;;;-142.57;100.00;56780.13;4888514;29;20108;-78
2023/12/29 02:14:18;;;;;;;85.18;46.22;;;;;;;-142.57;100.00;56816.50;4906918;29;20032;-78
2023/12/29 02:17:10;;;;;;;85.20;46.55;;;;;;;-142.57;100.00;56826.63;4894159;29;20111;-78
2023/12/29 02:19:46;;;;;;;91.63;46.83;;;;;;;-142.57;100.00;56794.28;4893745;29;20044;-78
2023/12/29 02:22:12;;;;;;;79.00;47.30;;;;;;;-142.57;100.00;56818.53;4903620;29;20497;-78
2023/12/29 02:24:38;;;;;;;83.88;45.33;;;;;;;-142.57;100.00;56842.78;4891964;29;20044;-77
2023/12/29 02:27:18;;;;;;;88.80;45.78;;;;;;;-142.57;100.00;56774.06;4899395;29;20096;-78
2023/12/29 02:29:56;;;;;;;83.82;46.50;;;;;;;-142.57;100.00;56774.06;4900949;29;20479;-78
2023/12/29 02:32:23;;;;;;;86.13;47.42;;;;;;;-142.57;100.00;56755.88;4907718;29;20028;-77
2023/12/29 02:34:51;;;;;;;97.15;51.00;;;;;;;-142.57;100.00;56768.00;4907584;29;20039;-77
2023/12/29 02:37:19;;;;;;;94.32;51.85;;;;;;;-142.57;100.00;56796.31;4902162;29;20043;-78
2023/12/29 02:39:44;;;;;;;95.35;51.28;;;;;;;-142.57;100.00;56782.16;4906128;29;20212;-77
2023/12/29 02:42:10;;;;;;;89.80;50.08;;;;;;;-142.57;100.00;56761.94;4909307;29;20111;-78
2023/12/29 02:44:35;;;;;;;97.43;51.38;;;;;;;-142.57;100.00;56763.97;4893739;29;20547;-79
2023/12/29 02:47:03;;;;;;;99.22;50.83;;;;;;;-142.57;100.00;56780.13;4893865;29;20104;-78
2023/12/29 02:49:29;;;;;;;96.53;50.78;;;;;;;-142.57;100.00;56812.47;4894742;29;20443;-79
2023/12/29 02:51:55;;;;;;;98.10;50.42;;;;;;;-142.57;100.00;56768.00;4877166;29;20165;-78
2023/12/29 02:54:20;;;;;;;90.30;50.38;;;;;;;-142.57;100.00;56790.25;4900446;29;20021;-77
2023/12/29 02:56:46;;;;;;;88.65;48.20;;;;;;;-142.57;100.00;56768.00;4883420;29;20169;-78
2023/12/29 02:59:11;;;;;;;90.70;49.05;;;;;;;-142.57;100.00;56780.13;4914209;29;20123;-78
2023/12/29 03:01:37;;;;;;;85.65;47.67;;;;;;;-142.57;100.00;56772.06;4903000;29;20131;-77
2023/12/29 03:04:02;;;;;;;88.40;47.53;;;;;;;-142.57;100.00;56782.16;4898724;29;20040;-78
2023/12/29 03:06:28;;;;;;;84.68;46.28;;;;;;;-142.57;100.00;56790.25;4886618;29;20125;-78
2023/12/29 03:08:53;;;;;;;85.10;45.75;;;;;;;-142.57;100.00;56804.38;4896847;29;20059;-78
2023/12/29 03:11:20;;;;;;;83.70;44.33;;;;;;;-142.57;100.00;56784.19;4890286;29;20488;-80
2023/12/29 03:13:45;;;;;;;75.80;42.53;;;;;;;-142.57;100.00;56812.47;4897959;29;20047;-77
2023/12/29 03:16:11;;;;;;;71.25;40.33;;;;;;;-142.57;100.00;56828.66;4903111;29;20134;-77
2023/12/29 03:18:39;;;;;;;70.97;40.40;;;;;;;-142.57;100.00;56731.63;4889058;29;20036;-76
2023/12/29 03:21:07;;;;;;;75.32;41.20;;;;;;;-142.57;100.00;56824.59;4912241;29;20044;-78
2023/12/29 03:23:34;;;;;;;71.22;38.35;;;;;;;-142.57;100.00;56850.88;4892885;29;20119;-77
2023/12/29 03:25:59;;;;;;;70.43;39.03;;;;;;;-142.57;100.00;56808.44;4906664;29;20047;-77
2023/12/29 03:28:25;;;;;;;66.72;37.92;;;;;;;-142.57;100.00;56822.59;4890121;29;20045;-77
2023/12/29 03:30:50;;;;;;;57.95;33.58;;;;;;;-142.57;100.00;56792.25;4910604;29;20123;-78
2023/12/29 03:33:16;;;;;;;52.78;31.10;;;;;;;-142.57;100.00;56848.84;4892684;29;20135;-78
2023/12/29 03:35:41;;;;;;;50.75;30.13;;;;;;;-142.57;100.00;56844.81;4903245;29;20118;-78
2023/12/29 03:38:07;;;;;;;53.20;29.70;;;;;;;-142.57;100.00;56832.69;4897035;29;20388;-78
2023/12/29 03:40:33;;;;;;;54.30;28.20;;;;;;;-142.57;100.00;56844.81;4896756;29;20391;-79
2023/12/29 03:42:58;;;;;;;38.83;24.02;;;;;;;-142.57;100.00;56832.69;4911870;29;20099;-79
2023/12/29 03:45:24;;;;;;;42.22;23.25;;;;;;;-142.57;100.00;56830.66;4895388;29;20123;-77
2023/12/29 03:47:49;;;;;;;44.00;24.52;;;;;;;-142.57;100.00;56877.16;4887911;29;20040;-77
2023/12/29 03:50:15;;;;;;;44.38;23.85;;;;;;;-142.57;100.00;56885.22;4912664;29;20110;-77
2023/12/29 03:52:40;;;;;;;39.15;23.25;;;;;;;-142.57;100.00;56869.06;4876071;29;20037;-77
2023/12/29 03:55:06;;;;;;;43.05;24.45;;;;;;;-142.57;100.00;56877.16;4841423;29;20031;-78
2023/12/29 03:57:34;;;;;;;41.08;24.38;;;;;;;-142.57;100.00;56881.19;4881762;29;20048;-78
2023/12/29 04:00:00;;;;;;;40.13;22.58;;;;;;;-142.57;100.00;56901.41;4882893;29;20120;-78
2023/12/29 04:02:26;;;;;;;41.50;21.80;;;;;;;-142.57;100.00;56923.63;4885729;29;20036;-79
2023/12/29 04:04:52;;;;;;;38.75;22.48;;;;;;;-142.57;100.00;56897.38;4878533;29;20056;-79
2023/12/29 04:07:20;;;;;;;39.53;21.95;;;;;;;-142.57;100.00;56889.28;4903256;29;20024;-78
2023/12/29 04:09:45;;;;;;;38.25;22.50;;;;;;;-142.57;100.00;56953.94;4892058;29;20059;-78
2023/12/29 04:12:11;;;;;;;38.33;21.48;;;;;;;-142.57;100.00;56966.09;4899990;29;20064;-77
2023/12/29 04:14:36;;;;;;;42.90;23.65;;;;;;;-142.57;100.00;56901.41;4899944;29;20124;-78
2023/12/29 04:17:04;;;;;;;35.97;21.10;;;;;;;-142.57;100.00;56925.66;4909930;29;20035;-77
2023/12/29 04:19:30;;;;;;;35.47;20.70;;;;;;;-142.57;100.00;56893.31;4900767;29;20048;-78
2023/12/29 04:21:55;;;;;;;33.40;20.25;;;;;;;-142.57;100.00;56943.84;4896817;29;20052;-78
2023/12/29 04:24:24;;;;;;;41.58;22.30;;;;;;;-142.57;100.00;56889.28;4900025;29;20604;-78
2023/12/29 04:26:49;;;;;;;36.78;20.23;;;;;;;-142.57;100.00;56875.13;4900821;29;20053;-76
2023/12/29 04:29:15;;;;;;;34.47;21.15;;;;;;;-142.57;100.00;56913.53;4902334;29;20157;-77
2023/12/29 04:31:41;;;;;;;39.28;22.48;;;;;;;-142.57;100.00;56887.25;4902192;29;20040;-78
2023/12/29 04:34:06;;;;;;;37.97;19.98;;;;;;;-142.57;100.00;56877.16;4914732;29;20036;-78
2023/12/29 04:36:32;;;;;;;39.45;22.10;;;;;;;-142.57;100.00;56889.28;4893507;29;20051;-76
2023/12/29 04:38:58;;;;;;;38.33;21.80;;;;;;;-142.57;100.00;56901.41;4893084;29;20055;-78
2023/12/29 04:41:23;;;;;;;38.60;21.67;;;;;;;-142.57;100.00;56913.53;4918147;29;20060;-78
2023/12/29 04:43:48;;;;;;;40.65;22.15;;;;;;;-142.57;100.00;56836.72;4911671;29;20069;-78
2023/12/29 04:46:14;;;;;;;47.15;22.25;;;;;;;-142.57;100.00;56812.47;4890199;29;20041;-77
2023/12/29 04:48:39;;;;;;;48.70;22.27;;;;;;;-142.57;100.00;56828.66;4902367;29;20056;-76
2023/12/29 04:51:05;;;;;;;41.05;23.40;;;;;;;-142.57;100.00;56820.56;4911401;29;20504;-81
2023/12/29 04:53:30;;;;;;;35.47;22.58;;;;;;;-142.57;100.00;56812.47;4918532;29;20048;-79
2023/12/29 04:55:56;;;;;;;40.20;22.13;;;;;;;-142.57;100.00;56782.16;4914706;29;20395;-79
2023/12/29 04:58:22;;;;;;;39.63;22.50;;;;;;;-142.57;100.00;56770.03;4892287;29;20123;-81
2023/12/29 05:00:48;;;;;;;43.63;25.48;;;;;;;-142.57;100.00;56707.38;4899014;29;20037;-79
2023/12/29 05:03:13;;;;;;;57.45;31.45;;;;;;;-142.57;100.00;56743.75;4902656;29;20131;-77
2023/12/29 05:05:39;;;;;;;61.80;36.60;;;;;;;-142.57;100.00;56751.84;4897263;29;20033;-78
2023/12/29 05:08:04;;;;;;;71.68;39.03;;;;;;;-142.57;100.00;56743.75;4914515;29;20036;-80
2023/12/29 05:10:30;;;;;;;74.65;41.45;;;;;;;-142.57;100.00;56723.53;4911950;29;20066;-79
2023/12/29 05:12:55;;;;;;;78.85;42.90;;;;;;;-142.57;100.00;56715.47;4917093;29;20040;-79
2023/12/29 05:15:21;;;;;;;85.00;41.92;;;;;;;-142.57;100.00;56705.34;4915741;29;20072;-79
2023/12/29 05:17:47;;;;;;;74.35;43.00;;;;;;;-142.57;100.00;56703.34;4893460;29;20084;-79
2023/12/29 05:20:12;;;;;;;79.28;40.80;;;;;;;-142.57;100.00;56705.34;4899931;29;20491;-79
2023/12/29 05:22:38;;;;;;;72.97;40.67;;;;;;;-142.57;100.00;56707.38;4899918;29;20028;-80
2023/12/29 05:25:05;;;;;;;76.82;41.55;;;;;;;-142.57;100.00;56747.81;4917655;29;20067;-81
2023/12/29 05:27:33;;;;;;;81.65;43.13;;;;;;;-142.57;100.00;56687.16;4880160;29;20047;-78
2023/12/29 05:30:00;;;;;;;70.25;40.60;;;;;;;-142.57;100.00;56759.94;4899361;29;20464;-81
2023/12/29 05:32:26;;;;;;;73.30;40.00;;;;;;;-142.57;100.00;56739.72;4898741;29;20039;-77
2023/12/29 05:34:52;;;;;;;69.07;40.05;;;;;;;-142.57;100.00;56681.09;4893829;29;20036;-81
2023/12/29 05:37:17;;;;;;;71.63;41.08;;;;;;;-142.57;100.00;56707.38;4906121;29;20036;-80
2023/12/29 05:39:43;;;;;;;73.10;40.88;;;;;;;-142.57;100.00;56711.41;4907648;29;20036;-78
2023/12/29 05:42:09;;;;;;;80.70;42.20;;;;;;;-142.57;100.00;56707.38;4909579;29;20119;-85
2023/12/29 05:44:37;;;;;;;80.13;42.35;;;;;;;-142.57;100.00;56699.28;4837642;29;20028;-78
2023/12/29 05:47:07;;;;;;;74.97;42.47;;;;;;;-142.57;100.00;56671.00;4895841;29;20032;-77
2023/12/29 05:49:39;;;;;;;79.82;42.75;;;;;;;-142.57;100.00;56679.09;4872949;29;20036;-80
2023/12/29 05:52:06;;;;;;;74.65;42.13;;;;;;;-142.57;100.00;56711.41;4821330;29;20032;-79
2023/12/29 05:54:31;;;;;;;77.45;42.55;;;;;;;-142.57;100.00;56691.22;4857207;29;20032;-79
2023/12/29 05:56:58;;;;;;;75.20;43.47;;;;;;;-142.57;100.00;56727.59;4892128;29;20483;-82
2023/12/29 05:59:23;;;;;;;77.55;43.00;;;;;;;-142.57;100.00;56695.25;4898360;29;20028;-81
2023/12/29 06:01:49;;;;;;;76.20;43.20;;;;;;;-142.57;100.00;56733.66;4899761;29;20052;-80
2023/12/29 06:04:17;;;;;;;79.45;42.97;;;;;;;-142.57;100.00;56662.91;4897083;29;20052;-82
2023/12/29 06:06:43;;;;;;;74.18;40.78;;;;;;;-142.57;100.00;56725.56;4866260;29;20051;-80
2023/12/29 06:09:11;;;;;;;79.32;43.25;;;;;;;-142.57;100.00;56731.63;4895180;29;20040;-79
2023/12/29 06:11:37;;;;;;;68.82;40.33;;;;;;;-142.57;100.00;56743.75;4844867;29;20041;-78
2023/12/29 06:14:03;;;;;;;75.03;43.15;;;;;;;-142.57;100.00;56707.38;4880401;29;20476;-77
2023/12/29 06:16:30;;;;;;;84.38;43.35;;;;;;;-142.57;100.00;56727.59;4886842;29;20464;-80
2023/12/29 06:18:56;;;;;;;75.90;43.10;;;;;;;-142.57;100.00;56715.47;4871188;29;20051;-81
2023/12/29 06:21:21;;;;;;;73.10;40.90;;;;;;;-142.57;100.00;56719.50;4902916;29;20032;-81
2023/12/29 06:23:48;;;;;;;87.00;43.08;;;;;;;-142.57;100.00;56727.59;4906744;29;20099;-79
2023/12/29 06:26:17;;;;;;;76.85;40.78;;;;;;;-142.57;100.00;56711.41;4917129;29;20063;-75
2023/12/29 06:28:47;;;;;;;86.13;43.17;;;;;;;-142.57;100.00;56699.28;4910539;29;20897;-76
2023/12/29 06:31:13;;;;;;;70.70;41.10;;;;;;;-142.57;100.00;56711.41;4897165;29;20032;-79
2023/12/29 06:33:44;;;;;;;78.60;43.25;;;;;;;-142.57;100.00;56717.47;4901466;29;20047;-78
2023/12/29 06:36:10;;;;;;;71.43;41.33;;;;;;;-142.57;100.00;56699.28;4896859;29;20040;-77
2023/12/29 06:38:36;;;;;;;73.72;40.92;;;;;;;-142.57;100.00;56703.34;4909039;29;20071;-77
2023/12/29 06:41:06;;;;;;;79.13;41.28;;;;;;;-142.57;100.00;56711.41;4910026;29;20056;-75
2023/12/29 06:43:33;;;;;;;81.55;42.00;;;;;;;-142.57;100.00;56727.59;4889465;29;20040;-78
2023/12/29 06:45:58;;;;;;;77.90;41.08;;;;;;;-142.57;100.00;56719.50;4898191;29;20566;-75
2023/12/29 06:48:24;;;;;;;76.03;42.80;;;;;;;-142.57;100.00;56673.03;4896667;29;20128;-79
2023/12/29 06:50:49;;;;;;;78.38;39.95;;;;;;;-142.57;100.00;56695.25;4899133;29;20039;-76
2023/12/29 06:53:15;;;;;;;69.72;40.65;;;;;;;-142.57;100.00;56634.63;4908523;29;20068;-78
2023/12/29 06:55:40;;;;;;;82.95;40.75;;;;;;;-142.57;100.00;56687.16;4910884;29;20032;-80
2023/12/29 06:58:08;;;;;;;79.25;43.58;;;;;;;-142.57;100.00;56743.75;4896787;29;20036;-79
2023/12/29 07:00:33;;;;;;;96.82;45.30;;;;;;;-142.57;100.00;56675.03;4900330;29;20116;-79
2023/12/29 07:03:01;;;;;;;81.07;42.30;;;;;;;-142.57;100.00;56707.38;4897312;29;20365;-80
2023/12/29 07:05:26;;;;;;;89.68;42.40;;;;;;;-142.57;100.00;56719.50;4897963;29;20035;-78
2023/12/29 07:07:52;;;;;;;72.03;41.35;;;;;;;-142.57;100.00;56634.63;4911555;29;20407;-76
2023/12/29 07:10:17;;;;;;;93.78;43.45;;;;;;;-142.57;100.00;56679.09;4915788;29;20036;-79
2023/12/29 07:12:43;;;;;;;115.93;46.10;;;;;;;-142.57;100.00;56725.56;4902559;29;20060;-81
2023/12/29 07:15:09;;;;;;;109.13;46.97;;;;;;;-142.57;100.00;56759.94;4895288;29;20035;-78
2023/12/29 07:17:37;;;;;;;95.90;44.03;;;;;;;-142.57;100.00;56723.53;4905819;29;20115;-78
2023/12/29 07:20:03;;;;;;;106.03;44.85;;;;;;;-142.57;100.00;56751.84;4895598;29;20048;-78
2023/12/29 07:22:30;;;;;;;91.15;44.05;;;;;;;-142.57;100.00;56709.41;4902700;29;20043;-79
2023/12/29 07:24:56;;;;;;;77.82;43.67;;;;;;;-142.57;100.00;56731.63;4915669;29;20044;-75
2023/12/29 07:27:21;;;;;;;82.82;43.40;;;;;;;-142.57;100.00;56800.34;4908599;29;20024;-82
2023/12/29 07:29:47;;;;;;;85.57;42.85;;;;;;;-142.57;100.00;56816.50;4915078;29;20067;-78
2023/12/29 07:32:12;;;;;;;84.15;42.53;;;;;;;-142.57;100.00;56840.78;4907346;29;20029;-81
2023/12/29 07:34:38;;;;;;;71.03;40.10;;;;;;;-142.57;100.00;56800.34;4898674;29;20036;-79
2023/12/29 07:37:03;;;;;;;77.13;41.22;;;;;;;-142.57;100.00;56755.88;4903120;29;20035;-87
2023/12/29 07:39:29;;;;;;;83.43;43.92;;;;;;;-142.57;100.00;56735.69;4903290;29;20404;-79
2023/12/29 07:41:54;;;;;;;105.78;46.03;;;;;;;-142.57;100.00;56753.88;4902165;29;20036;-79
2023/12/29 07:44:22;;;;;;;80.47;43.95;;;;;;;-142.57;100.00;56735.69;4890915;29;20437;-84
2023/12/29 07:46:48;;;;;;;85.43;44.80;;;;;;;-142.57;100.00;56723.53;4900102;29;20048;-82
2023/12/29 07:49:14;;;;;;;112.00;46.60;;;;;;;-142.57;100.00;56691.22;4901636;29;20051;-80
2023/12/29 07:51:46;;;;;;;82.43;45.47;;;;;;;-142.57;100.00;56715.47;4911327;29;20475;-78
2023/12/29 07:54:11;;;;;;;98.70;46.08;;;;;;;-142.57;100.00;56703.34;4901191;29;20056;-80
2023/12/29 07:56:37;;;;;;;102.25;47.75;;;;;;;-142.57;100.00;56717.47;4908326;29;20483;-83
2023/12/29 07:59:03;;;;;;;112.63;46.70;;;;;;;-142.57;100.00;56729.59;4914018;29;20380;-84
2023/12/29 08:01:29;;;;;;;89.47;47.75;;;;;;;-142.57;100.00;56699.28;4904800;29;20608;-86
2023/12/29 08:03:55;;;;;;;95.45;48.75;;;;;;;-142.57;100.00;56749.81;4895278;29;20115;-86
2023/12/29 08:06:21;;;;;;;106.78;46.85;;;;;;;-142.57;100.00;56751.84;4907734;29;20044;-83
2023/12/29 08:08:46;;;;;;;101.03;49.22;;;;;;;-142.57;100.00;56759.94;4900003;29;20048;-84
2023/12/29 08:11:16;;;;;;;107.25;48.10;;;;;;;-142.57;100.00;56715.47;4900422;29;20127;-82
2023/12/29 08:13:43;;;;;;;104.25;51.30;;;;;;;-142.57;100.00;56681.09;4902262;29;20044;-80
2023/12/29 08:16:09;;;;;;;98.93;50.38;;;;;;;-142.57;100.00;56735.69;4883327;29;20096;-80
2023/12/29 08:18:35;;;;;;;92.13;49.25;;;;;;;-142.57;100.00;56717.47;4898925;29;20132;-85
2023/12/29 08:21:01;;;;;;;93.43;49.83;;;;;;;-142.57;100.00;56755.88;4902193;29;20074;-88
2023/12/29 08:23:26;;;;;;;129.50;50.10;;;;;;;-142.57;100.00;56751.84;4905165;29;20182;-83
2023/12/29 08:25:52;;;;;;;91.50;46.60;;;;;;;-142.57;100.00;56759.94;4900040;29;20040;-84
2023/12/29 08:28:18;;;;;;;110.55;51.50;;;;;;;-142.57;100.00;56723.53;4883878;29;20059;-83
2023/12/29 08:30:45;;;;;;;86.05;47.08;;;;;;;-142.57;100.00;56768.00;4908312;29;20036;-80
2023/12/29 08:33:12;;;;;;;104.63;51.05;;;;;;;-142.57;100.00;56741.75;4917600;29;20036;-87
2023/12/29 08:35:40;;;;;;;86.53;47.25;;;;;;;-142.57;100.00;56705.34;4886520;29;20376;-79
2023/12/29 08:38:06;;;;;;;129.95;55.05;;;;;;;-142.57;100.00;56745.78;4919078;29;20040;-84
2023/12/29 08:40:31;;;;;;;100.15;49.33;;;;;;;-142.57;100.00;56792.25;4919131;29;20395;-85
2023/12/29 08:42:57;;;;;;;81.90;43.97;;;;;;;-142.57;100.00;56759.94;4917337;29;20039;-82
2023/12/29 08:45:22;;;;;;;96.32;46.10;;;;;;;-142.57;100.00;56741.75;4903194;29;20043;-81
2023/12/29 08:47:48;;;;;;;121.47;47.35;;;;;;;-142.57;100.00;56800.34;4901738;29;20039;-88
2023/12/29 08:50:14;;;;;;;87.35;46.58;;;;;;;-142.57;100.00;56761.94;4912327;29;20032;-83
2023/12/29 08:52:40;;;;;;;167.95;51.28;;;;;;;-142.57;100.00;56772.06;4903831;29;20034;-84
2023/12/29 08:55:06;;;;;;;142.90;48.05;;;;;;;-142.57;100.00;56786.19;4900744;29;20476;-84
2023/12/29 08:57:32;;;;;;;280.77;56.05;;;;;;;-142.57;100.00;56826.63;4900575;29;20040;-81
2023/12/29 08:59:57;;;;;;;89.10;45.97;;;;;;;-142.57;100.00;56800.34;4900406;29;20045;-86
2023/12/29 09:02:23;;;;;;;143.85;46.80;;;;;;;-142.57;100.00;56856.94;4908313;29;20024;-86
2023/12/29 09:04:48;;;;;;;81.78;43.75;;;;;;;-142.57;100.00;56834.72;4907783;29;20036;-83
2023/12/29 09:07:13;;;;;;;85.28;43.35;;;;;;;-142.57;100.00;56808.44;4904615;29;20604;-85
2023/12/29 09:09:42;;;;;;;106.68;44.08;;;;;;;-142.57;100.00;56812.47;4901272;29;20047;-86
2023/12/29 09:12:08;;;;;;;129.70;44.10;;;;;;;-142.57;100.00;56796.31;4900565;29;20087;-85
2023/12/29 09:14:34;;;;;;;80.88;40.20;;;;;;;-142.57;100.00;56860.97;4901184;29;20028;-89
2023/12/29 09:17:03;;;;;;;123.47;41.92;;;;;;;-142.57;100.00;56776.09;4900405;29;20059;-86
2023/12/29 09:19:28;;;;;;;113.90;45.60;;;;;;;-142.57;100.00;56828.66;4901928;29;20044;-83
2023/12/29 09:21:54;;;;;;;157.80;52.08;;;;;;;-142.57;100.00;56834.72;4884072;29;20149;-88
2023/12/29 09:24:20;;;;;;;109.50;47.38;;;;;;;-142.57;100.00;56848.84;4914725;29;20107;-83
2023/12/29 09:26:45;;;;;;;76.47;38.90;;;;;;;-142.57;100.00;56840.78;4889259;29;20040;-83
2023/12/29 09:29:11;;;;;;;77.30;39.83;;;;;;;-142.57;100.00;56844.81;4899878;29;20040;-85
2023/12/29 09:31:36;;;;;;;111.45;44.17;;;;;;;-142.57;100.00;56798.31;4900338;29;20141;-89
2023/12/29 09:34:02;;;;;;;76.13;37.75;;;;;;;-142.57;100.00;56804.38;4899687;29;20040;-81
2023/12/29 09:36:30;;;;;;;93.05;39.15;;;;;;;-142.57;100.00;56794.28;4906683;29;20036;-81
2023/12/29 09:38:56;;;;;;;97.57;40.08;;;;;;;-142.57;100.00;56830.66;4918872;29;20036;-88
2023/12/29 09:41:25;;;;;;;74.78;39.05;;;;;;;-142.57;100.00;56852.91;4919270;29;20506;-90
2023/12/29 09:43:51;;;;;;;72.75;38.03;;;;;;;-142.57;100.00;56877.16;4924323;29;20119;-83
2023/12/29 09:46:20;;;;;;;93.60;36.55;;;;;;;-142.57;100.00;56828.66;4917106;29;20041;-88
2023/12/29 09:48:47;;;;;;;72.85;36.47;;;;;;;-142.57;100.00;56856.94;4900924;29;20423;-91
2023/12/29 09:51:15;;;;;;;65.80;37.35;;;;;;;-142.57;100.00;56806.41;4905312;29;20443;-84
2023/12/29 09:53:41;;;;;;;89.75;37.38;;;;;;;-142.57;100.00;56836.72;4921627;29;20115;-84
2023/12/29 09:56:09;;;;;;;90.90;37.88;;;;;;;-142.57;100.00;56877.16;4908614;29;20472;-87
2023/12/29 09:58:36;;;;;;;81.65;37.70;;;;;;;-142.57;100.00;56852.91;4908592;29;20108;-88
2023/12/29 10:01:04;;;;;;;123.65;38.63;;;;;;;-142.57;100.00;56893.31;4907082;29;20028;-88
2023/12/29 10:03:30;;;;;;;174.30;40.08;;;;;;;-142.57;100.00;56893.31;4918329;29;20127;-87
2023/12/29 10:05:59;;;;;;;65.70;32.00;;;;;;;-142.57;100.00;56863.00;4900971;29;20495;-85
2023/12/29 10:08:27;;;;;;;68.18;32.55;;;;;;;-142.57;100.00;56941.81;4899286;29;20059;-86
2023/12/29 10:10:58;;;;;;;272.15;44.22;;;;;;;-142.57;100.00;56901.41;4918252;29;20029;-81
2023/12/29 10:13:28;;;;;;;137.00;37.25;;;;;;;-142.57;100.00;56873.09;4919863;29;20081;-81
2023/12/29 10:16:15;;;;;;;133.38;38.05;;;;;;;-142.57;100.00;56919.59;4919078;29;20017;-88
2023/12/29 10:18:47;;;;;;;82.50;33.85;;;;;;;-142.57;100.00;56966.09;4929464;29;20479;-84
2023/12/29 10:21:28;;;;;;;276.70;45.20;;;;;;;-142.57;100.00;56937.78;4919303;29;20060;-79
2023/12/29 10:24:18;;;;;;;87.07;32.80;;;;;;;-142.57;100.00;56919.59;4909620;29;20103;-84
2023/12/29 10:26:44;;;;;;;135.40;37.47;;;;;;;-142.57;100.00;56887.25;4913254;29;20086;-81
2023/12/29 10:29:11;;;;;;;60.47;32.63;;;;;;;-142.57;100.00;56913.53;4929582;29;20032;-80
2023/12/29 10:31:37;;;;;;;64.72;32.13;;;;;;;-142.57;100.00;56850.88;4919666;29;20490;-88
2023/12/29 10:34:19;;;;;;;54.53;30.58;;;;;;;-142.57;100.00;56850.88;4918655;29;20040;-86
2023/12/29 10:36:49;;;;;;;82.97;34.85;;;;;;;-142.57;100.00;56885.22;4936124;29;20043;-85
2023/12/29 10:39:15;;;;;;;177.30;41.80;;;;;;;-142.57;100.00;56873.09;4915836;29;20123;-85
2023/12/29 10:41:41;;;;;;;106.00;34.35;;;;;;;-142.57;100.00;56881.19;4899544;29;20040;-85
2023/12/29 10:44:07;;;;;;;47.20;29.58;;;;;;;-142.57;100.00;56881.19;4916662;29;20068;-86
2023/12/29 10:46:33;;;;;;;61.75;31.38;;;;;;;-142.57;100.00;56834.72;4916211;29;20079;-84
2023/12/29 10:49:09;;;;;;;53.97;29.23;;;;;;;-142.57;100.00;56889.28;4898976;29;20047;-88
2023/12/29 10:51:35;;;;;;;53.67;30.23;;;;;;;-142.57;100.00;56877.16;4915615;29;20043;-88
2023/12/29 10:54:00;;;;;;;89.15;33.10;;;;;;;-142.57;100.00;56895.34;4921998;29;20036;-83